createdAt,value
2017-09-13T00:00:01.355Z,97903.78
2017-09-13T00:02:28.851Z,97894.58
2017-09-13T00:04:56.354Z,97895.70
2017-09-13T00:07:23.875Z,97890.30
2017-09-13T00:09:51.387Z,97886.98
2017-09-13T00:12:18.908Z,97884.73
2017-09-13T00:14:46.448Z,97890.41
2017-09-13T00:17:13.970Z,97889.35
2017-09-13T00:19:41.465Z,97889.06
2017-09-13T00:22:08.985Z,97886.18
2017-09-13T00:24:36.499Z,97879.29
2017-09-13T00:27:04.002Z,97873.36
2017-09-13T00:29:31.513Z,97874.84
2017-09-13T00:31:59.024Z,97869.16
2017-09-13T00:34:26.528Z,97871.20
2017-09-13T00:36:54.043Z,97873.87
2017-09-13T00:39:21.548Z,97875.08
2017-09-13T00:41:49.054Z,97872.75
2017-09-13T00:44:16.556Z,97870.43
2017-09-13T00:46:44.069Z,97864.42
2017-09-13T00:49:11.586Z,97861.52
2017-09-13T00:51:39.087Z,97864.26
2017-09-13T00:54:06.605Z,97858.34
2017-09-13T00:56:34.142Z,97863.97
2017-09-13T00:59:01.700Z,97862.78
2017-09-13T01:01:29.261Z,97860.89
2017-09-13T01:03:56.775Z,97865.17
2017-09-13T01:06:24.273Z,97861.64
2017-09-13T01:08:51.834Z,97855.71
2017-09-13T01:11:19.337Z,97855.19
2017-09-13T01:13:46.847Z,97845.25
2017-09-13T01:16:14.367Z,97842.80
2017-09-13T01:18:41.876Z,97837.28
2017-09-13T01:21:09.373Z,97834.39
2017-09-13T01:23:36.875Z,97832.51
2017-09-13T01:26:04.375Z,97827.34
2017-09-13T01:28:31.887Z,97828.52
2017-09-13T01:30:59.394Z,97826.53
2017-09-13T01:33:26.909Z,97821.37
2017-09-13T01:35:54.432Z,97816.13
2017-09-13T01:38:21.945Z,97810.52
2017-09-13T01:40:49.485Z,97800.95
2017-09-13T01:43:16.992Z,97796.84
2017-09-13T01:45:44.504Z,97785.72
2017-09-13T01:48:12.028Z,97782.14
2017-09-13T01:50:39.536Z,97784.62
2017-09-13T01:53:07.035Z,97777.24
2017-09-13T01:55:34.536Z,97772.73
2017-09-13T01:58:02.236Z,97766.58
2017-09-13T02:00:29.744Z,97761.63
2017-09-13T02:02:57.253Z,97758.42
2017-09-13T02:05:24.753Z,97759.71
2017-09-13T02:07:52.285Z,97757.52
2017-09-13T02:10:19.819Z,97752.17
2017-09-13T02:12:47.330Z,97745.20
2017-09-13T02:15:14.852Z,97747.44
2017-09-13T02:17:43.105Z,97734.89
2017-09-13T02:20:10.615Z,97719.24
2017-09-13T02:22:38.118Z,97712.28
2017-09-13T02:25:05.819Z,97719.39
2017-09-13T02:27:33.322Z,97715.08
2017-09-13T02:30:00.827Z,97721.78
2017-09-13T02:32:28.353Z,97716.10
2017-09-13T02:34:55.896Z,97714.42
2017-09-13T02:37:23.402Z,97704.31
2017-09-13T02:39:50.910Z,97700.89
2017-09-13T02:42:18.431Z,97703.78
2017-09-13T02:44:45.955Z,97707.55
2017-09-13T02:47:13.461Z,97696.75
2017-09-13T02:49:40.976Z,97689.89
2017-09-13T02:52:08.496Z,97679.78
2017-09-13T02:54:36.004Z,97674.29
2017-09-13T02:57:03.509Z,97669.99
2017-09-13T02:59:31.020Z,97669.61
2017-09-13T03:01:58.519Z,97662.14
2017-09-13T03:04:26.020Z,97654.64
2017-09-13T03:06:53.516Z,97652.21
2017-09-13T03:09:21.034Z,97635.73
2017-09-13T03:11:48.534Z,97631.09
2017-09-13T03:14:16.044Z,97616.46
2017-09-13T03:16:43.566Z,97617.95
2017-09-13T03:19:11.082Z,97617.16
2017-09-13T03:21:38.601Z,97621.05
2017-09-13T03:24:06.124Z,97607.41
2017-09-13T03:26:33.640Z,97605.95
2017-09-13T03:29:01.141Z,97605.00
2017-09-13T03:31:28.854Z,97587.59
2017-09-13T03:33:56.418Z,97583.66
2017-09-13T03:36:24.087Z,97575.77
2017-09-13T03:38:51.598Z,97567.83
2017-09-13T03:41:19.107Z,97558.38
2017-09-13T03:43:46.948Z,97558.00
2017-09-13T03:46:14.499Z,97546.84
2017-09-13T03:48:42.007Z,97549.80
2017-09-13T03:51:09.527Z,97534.67
2017-09-13T03:53:37.236Z,97535.19
2017-09-13T03:56:04.761Z,97530.13
2017-09-13T03:58:32.259Z,97523.92
2017-09-13T04:01:00.773Z,97522.82
2017-09-13T04:03:28.295Z,97523.33
2017-09-13T04:05:55.795Z,97513.90
2017-09-13T04:08:23.316Z,97506.72
2017-09-13T04:10:50.828Z,97505.30
2017-09-13T04:13:19.280Z,97508.87
2017-09-13T04:15:46.783Z,97501.36
2017-09-13T04:18:15.196Z,97502.02
2017-09-13T04:20:42.721Z,97511.53
2017-09-13T04:23:10.247Z,97498.33
2017-09-13T04:25:37.766Z,97491.97
2017-09-13T04:28:05.267Z,97488.45
2017-09-13T04:30:32.783Z,97491.77
2017-09-13T04:33:00.306Z,97476.62
2017-09-13T04:35:27.840Z,97470.59
2017-09-13T04:37:55.344Z,97470.80
2017-09-13T04:40:22.856Z,97472.32
2017-09-13T04:42:50.384Z,97473.62
2017-09-13T04:45:17.888Z,97467.36
2017-09-13T04:47:45.408Z,97471.86
2017-09-13T04:50:12.905Z,97473.02
2017-09-13T04:52:40.424Z,97471.58
2017-09-13T04:55:07.940Z,97461.08
2017-09-13T04:57:35.458Z,97469.09
2017-09-13T05:00:02.974Z,97466.75
2017-09-13T05:02:30.534Z,97465.66
2017-09-13T05:04:58.070Z,97460.26
2017-09-13T05:07:25.582Z,97454.82
2017-09-13T05:09:53.087Z,97444.48
2017-09-13T05:12:20.662Z,97442.83
2017-09-13T05:14:48.182Z,97443.77
2017-09-13T05:17:15.695Z,97450.22
2017-09-13T05:19:43.222Z,97444.36
2017-09-13T05:22:10.740Z,97442.19
2017-09-13T05:24:38.245Z,97428.95
2017-09-13T05:27:05.752Z,97418.69
2017-09-13T05:29:33.266Z,97435.72
2017-09-13T05:32:00.820Z,97422.98
2017-09-13T05:34:28.599Z,97424.80
2017-09-13T05:36:56.111Z,97426.23
2017-09-13T05:39:23.627Z,97425.03
2017-09-13T05:41:51.137Z,97418.55
2017-09-13T05:44:18.708Z,97413.22
2017-09-13T05:46:46.333Z,97409.41
2017-09-13T05:49:13.867Z,97400.47
2017-09-13T05:51:41.377Z,97379.60
2017-09-13T05:54:08.885Z,97405.12
2017-09-13T05:56:36.400Z,97397.19
2017-09-13T05:59:03.968Z,97387.03
2017-09-13T06:01:31.490Z,97366.44
2017-09-13T06:03:59.007Z,97360.11
2017-09-13T06:06:26.523Z,97361.77
2017-09-13T06:08:54.046Z,97350.16
2017-09-13T06:11:21.578Z,97357.66
2017-09-13T06:13:49.102Z,97357.08
2017-09-13T06:16:16.717Z,97364.81
2017-09-13T06:18:44.223Z,97350.75
2017-09-13T06:21:11.764Z,97322.94
2017-09-13T06:23:39.339Z,97338.81
2017-09-13T06:26:06.835Z,97318.86
2017-09-13T06:28:34.346Z,97326.80
2017-09-13T06:31:01.851Z,97322.41
2017-09-13T06:33:29.365Z,97329.70
2017-09-13T06:35:57.039Z,97322.02
2017-09-13T06:38:24.556Z,97332.23
2017-09-13T06:40:52.077Z,97348.39
2017-09-13T06:43:19.601Z,97340.57
2017-09-13T06:45:47.118Z,97351.55
2017-09-13T06:48:14.748Z,97346.58
2017-09-13T06:50:42.260Z,97348.47
2017-09-13T06:53:09.792Z,97343.82
2017-09-13T06:55:37.308Z,97356.52
2017-09-13T06:58:04.927Z,97355.91
2017-09-13T07:00:32.444Z,97360.00
2017-09-13T07:02:59.951Z,97348.45
2017-09-13T07:05:27.487Z,97354.45
2017-09-13T07:07:54.999Z,97360.49
2017-09-13T07:10:22.524Z,97367.31
2017-09-13T07:12:50.031Z,97376.19
2017-09-13T07:15:17.579Z,97361.70
2017-09-13T07:17:45.092Z,97370.85
2017-09-13T07:20:12.608Z,97368.77
2017-09-13T07:22:40.142Z,97381.38
2017-09-13T07:25:07.664Z,97380.38
2017-09-13T07:27:35.162Z,97377.55
2017-09-13T07:30:02.671Z,97386.09
2017-09-13T07:32:30.171Z,97381.88
2017-09-13T07:34:57.671Z,97377.39
2017-09-13T07:37:25.314Z,97381.86
2017-09-13T07:39:52.829Z,97374.69
2017-09-13T07:42:20.390Z,97377.77
2017-09-13T07:44:47.919Z,97379.70
2017-09-13T07:47:15.435Z,97384.56
2017-09-13T07:49:42.967Z,97378.63
2017-09-13T07:52:10.472Z,97375.61
2017-09-13T07:54:37.988Z,97385.35
2017-09-13T07:57:05.507Z,97368.34
2017-09-13T07:59:33.040Z,97375.62
2017-09-13T08:02:00.543Z,97382.16
2017-09-13T08:04:28.063Z,97386.81
2017-09-13T08:06:55.592Z,97385.88
2017-09-13T08:09:23.264Z,97373.27
2017-09-13T08:11:50.779Z,97366.89
2017-09-13T08:14:18.299Z,97363.30
2017-09-13T08:16:45.824Z,97361.67
2017-09-13T08:19:13.325Z,97380.25
2017-09-13T08:21:40.834Z,97367.11
2017-09-13T08:24:08.356Z,97372.48
2017-09-13T08:26:35.870Z,97362.98
2017-09-13T08:29:03.391Z,97367.48
2017-09-13T08:31:30.900Z,97369.91
2017-09-13T08:33:58.428Z,97378.94
2017-09-13T08:36:25.991Z,97379.20
2017-09-13T08:38:53.499Z,97370.03
2017-09-13T08:41:21.012Z,97362.47
2017-09-13T08:43:48.551Z,97360.62
2017-09-13T08:46:16.056Z,97372.59
2017-09-13T08:48:43.567Z,97368.96
2017-09-13T08:51:11.075Z,97371.00
2017-09-13T08:53:38.586Z,97380.58
2017-09-13T08:56:06.098Z,97361.80
2017-09-13T08:58:33.664Z,97376.64
2017-09-13T09:01:01.175Z,97366.65
2017-09-13T09:03:28.739Z,97364.21
2017-09-13T09:05:56.300Z,97372.53
2017-09-13T09:08:23.820Z,97366.25
2017-09-13T09:10:51.331Z,97369.94
2017-09-13T09:13:18.855Z,97350.38
2017-09-13T09:15:46.378Z,97357.89
2017-09-13T09:18:13.866Z,97355.63
2017-09-13T09:20:41.380Z,97355.29
2017-09-13T09:23:08.888Z,97359.73
2017-09-13T09:25:36.403Z,97372.02
2017-09-13T09:28:03.942Z,97362.98
2017-09-13T09:30:31.441Z,97372.45
2017-09-13T09:32:58.961Z,97374.52
2017-09-13T09:35:26.464Z,97365.34
2017-09-13T09:37:54.161Z,97371.89
2017-09-13T09:40:21.716Z,97384.79
2017-09-13T09:42:49.234Z,97376.38
2017-09-13T09:45:16.751Z,97371.58
2017-09-13T09:47:44.279Z,97369.55
2017-09-13T09:50:11.779Z,97357.67
2017-09-13T09:52:39.291Z,97361.30
2017-09-13T09:55:06.789Z,97358.14
2017-09-13T09:57:34.297Z,97351.44
2017-09-13T10:00:01.816Z,97347.00
2017-09-13T10:02:30.354Z,97345.45
2017-09-13T10:04:57.854Z,97342.56
2017-09-13T10:07:25.375Z,97335.88
2017-09-13T10:09:52.898Z,97344.39
2017-09-13T10:12:20.415Z,97340.45
2017-09-13T10:14:47.924Z,97346.31
2017-09-13T10:17:15.435Z,97349.19
2017-09-13T10:19:42.958Z,97339.99
2017-09-13T10:22:10.531Z,97351.81
2017-09-13T10:24:38.035Z,97337.98
2017-09-13T10:27:05.541Z,97346.08
2017-09-13T10:29:33.053Z,97347.28
2017-09-13T10:32:00.563Z,97336.17
2017-09-13T10:34:28.070Z,97334.23
2017-09-13T10:36:55.577Z,97324.20
2017-09-13T10:39:23.088Z,97347.82
2017-09-13T10:41:50.595Z,97318.37
2017-09-13T10:44:18.090Z,97337.11
2017-09-13T10:46:45.598Z,97344.50
2017-09-13T10:49:13.103Z,97348.23
2017-09-13T10:51:40.611Z,97355.25
2017-09-13T10:54:08.120Z,97348.05
2017-09-13T10:56:35.640Z,97356.03
2017-09-13T10:59:03.152Z,97355.33
2017-09-13T11:01:30.665Z,97343.98
2017-09-13T11:03:58.174Z,97366.88
2017-09-13T11:06:25.688Z,97361.34
2017-09-13T11:08:53.197Z,97380.38
2017-09-13T11:11:20.699Z,97357.78
2017-09-13T11:13:48.214Z,97366.31
2017-09-13T11:16:15.720Z,97363.63
2017-09-13T11:18:43.258Z,97391.66
2017-09-13T11:21:10.784Z,97383.64
2017-09-13T11:23:38.340Z,97388.84
2017-09-13T11:26:05.859Z,97384.64
2017-09-13T11:28:33.396Z,97399.09
2017-09-13T11:31:00.896Z,97384.95
2017-09-13T11:33:28.454Z,97387.20
2017-09-13T11:35:55.985Z,97383.84
2017-09-13T11:38:23.612Z,97373.78
2017-09-13T11:40:51.124Z,97381.80
2017-09-13T11:43:19.552Z,97401.79
2017-09-13T11:45:47.070Z,97388.05
2017-09-13T11:48:14.600Z,97395.45
2017-09-13T11:50:42.112Z,97393.89
2017-09-13T11:53:09.623Z,97408.94
2017-09-13T11:55:37.139Z,97409.13
2017-09-13T11:58:04.645Z,97409.59
2017-09-13T12:00:32.152Z,97417.80
2017-09-13T12:02:59.760Z,97409.30
2017-09-13T12:05:27.265Z,97409.51
2017-09-13T12:07:54.778Z,97395.39
2017-09-13T12:10:22.328Z,97414.57
2017-09-13T12:12:49.840Z,97406.06
2017-09-13T12:15:17.379Z,97419.13
2017-09-13T12:17:44.919Z,97404.56
2017-09-13T12:20:12.449Z,97396.25
2017-09-13T12:22:39.967Z,97420.02
2017-09-13T12:25:07.479Z,97418.31
2017-09-13T12:27:34.987Z,97411.13
2017-09-13T12:30:02.500Z,97407.22
2017-09-13T12:32:30.111Z,97416.98
2017-09-13T12:34:57.669Z,97402.13
2017-09-13T12:37:25.209Z,97405.84
2017-09-13T12:39:52.722Z,97400.48
2017-09-13T12:42:20.247Z,97408.63
2017-09-13T12:44:47.752Z,97412.71
2017-09-13T12:47:15.279Z,97424.19
2017-09-13T12:49:42.806Z,97405.08
2017-09-13T12:52:10.335Z,97400.42
2017-09-13T12:54:37.862Z,97391.48
2017-09-13T12:57:05.381Z,97385.67
2017-09-13T12:59:32.896Z,97391.49
2017-09-13T13:02:00.427Z,97362.39
2017-09-13T13:04:27.935Z,97363.57
2017-09-13T13:06:55.468Z,97381.78
2017-09-13T13:09:22.992Z,97385.53
2017-09-13T13:11:50.495Z,97401.06
2017-09-13T13:14:18.024Z,97388.62
2017-09-13T13:16:45.532Z,97392.69
2017-09-13T13:19:13.071Z,97400.02
2017-09-13T13:21:40.579Z,97397.86
2017-09-13T13:24:08.098Z,97390.30
2017-09-13T13:26:35.618Z,97384.05
2017-09-13T13:29:03.131Z,97383.20
2017-09-13T13:31:30.675Z,97368.16
2017-09-13T13:33:58.183Z,97385.81
2017-09-13T13:36:25.685Z,97375.54
2017-09-13T13:38:53.187Z,97368.12
2017-09-13T13:41:20.720Z,97359.56
2017-09-13T13:43:48.223Z,97358.99
2017-09-13T13:46:15.751Z,97361.48
2017-09-13T13:48:43.276Z,97337.77
2017-09-13T13:51:10.790Z,97345.50
2017-09-13T13:53:38.300Z,97355.93
2017-09-13T13:56:05.803Z,97354.39
2017-09-13T13:58:33.298Z,97352.03
2017-09-13T14:01:00.799Z,97356.94
2017-09-13T14:03:28.324Z,97358.48
2017-09-13T14:05:55.825Z,97360.98
2017-09-13T14:08:23.334Z,97346.42
2017-09-13T14:10:50.851Z,97350.81
2017-09-13T14:13:18.398Z,97339.66
2017-09-13T14:15:45.919Z,97327.88
2017-09-13T14:18:13.422Z,97343.78
2017-09-13T14:20:40.915Z,97340.75
2017-09-13T14:25:35.261Z,97328.88
2017-09-13T14:28:02.802Z,97322.20
2017-09-13T14:30:30.330Z,97326.20
2017-09-13T14:32:57.851Z,97312.25
2017-09-13T14:35:25.354Z,97319.76
2017-09-13T14:37:52.884Z,97308.55
2017-09-13T14:40:20.409Z,97307.41
2017-09-13T14:42:47.927Z,97299.40
2017-09-13T14:45:15.430Z,97298.02
2017-09-13T14:47:42.947Z,97292.38
2017-09-13T14:50:10.478Z,97281.55
2017-09-13T14:52:38.047Z,97279.22
2017-09-13T14:55:05.554Z,97274.72
2017-09-13T14:57:33.218Z,97284.31
2017-09-13T15:00:00.743Z,97285.28
2017-09-13T15:02:28.381Z,97282.05
2017-09-13T15:04:55.916Z,97280.03
2017-09-13T15:07:23.443Z,97277.85
2017-09-13T15:09:50.971Z,97275.55
2017-09-13T15:12:18.486Z,97255.75
2017-09-13T15:14:46.010Z,97271.13
2017-09-13T15:17:13.533Z,97277.27
2017-09-13T15:19:41.038Z,97271.83
2017-09-13T15:22:08.539Z,97265.08
2017-09-13T15:24:36.058Z,97254.17
2017-09-13T15:27:03.614Z,97249.13
2017-09-13T15:29:31.127Z,97238.52
2017-09-13T15:31:58.662Z,97234.81
2017-09-13T15:34:26.167Z,97232.91
2017-09-13T15:36:53.695Z,97254.89
2017-09-13T15:39:21.209Z,97255.58
2017-09-13T15:41:49.067Z,97244.25
2017-09-13T15:44:16.600Z,97248.48
2017-09-13T15:46:44.136Z,97249.29
2017-09-13T15:49:11.656Z,97241.69
2017-09-13T15:51:39.201Z,97239.95
2017-09-13T15:54:06.714Z,97232.62
2017-09-13T15:56:34.319Z,97240.00
2017-09-13T15:59:01.828Z,97244.96
2017-09-13T16:01:29.333Z,97251.56
2017-09-13T16:03:56.859Z,97242.86
2017-09-13T16:06:24.385Z,97242.09
2017-09-13T16:08:51.910Z,97224.59
2017-09-13T16:11:19.434Z,97225.16
2017-09-13T16:13:46.973Z,97219.84
2017-09-13T16:16:14.516Z,97228.92
2017-09-13T16:18:42.032Z,97225.27
2017-09-13T16:21:09.659Z,97217.49
2017-09-13T16:23:37.176Z,97210.64
2017-09-13T16:26:04.699Z,97222.75
2017-09-13T16:28:32.255Z,97222.93
2017-09-13T16:30:59.818Z,97218.12
2017-09-13T16:33:27.353Z,97225.95
2017-09-13T16:35:55.106Z,97221.69
2017-09-13T16:38:22.645Z,97224.43
2017-09-13T16:40:50.167Z,97217.79
2017-09-13T16:43:17.707Z,97208.17
2017-09-13T16:45:45.254Z,97218.02
2017-09-13T16:48:12.848Z,97205.05
2017-09-13T16:50:40.406Z,97205.94
2017-09-13T16:53:07.978Z,97188.87
2017-09-13T16:55:35.479Z,97191.80
2017-09-13T16:58:03.029Z,97190.42
2017-09-13T17:00:30.543Z,97188.19
2017-09-13T17:02:58.075Z,97188.58
2017-09-13T17:05:25.591Z,97189.55
2017-09-13T17:07:53.103Z,97182.17
2017-09-13T17:10:20.624Z,97182.19
2017-09-13T17:12:48.130Z,97184.76
2017-09-13T17:15:15.640Z,97187.92
2017-09-13T17:17:43.139Z,97184.66
2017-09-13T17:20:10.675Z,97187.08
2017-09-13T17:22:38.199Z,97193.30
2017-09-13T17:25:05.782Z,97194.59
2017-09-13T17:27:33.327Z,97192.40
2017-09-13T17:30:00.860Z,97182.51
2017-09-13T17:32:28.494Z,97189.27
2017-09-13T17:34:56.057Z,97174.67
2017-09-13T17:37:23.622Z,97169.23
2017-09-13T17:39:51.140Z,97161.59
2017-09-13T17:42:18.649Z,97164.78
2017-09-13T17:44:46.153Z,97166.52
2017-09-13T17:47:13.767Z,97158.67
2017-09-13T17:49:41.272Z,97160.42
2017-09-13T17:52:08.843Z,97156.09
2017-09-13T17:54:36.355Z,97163.19
2017-09-13T17:57:03.887Z,97147.35
2017-09-13T17:59:31.396Z,97146.01
2017-09-13T18:01:58.904Z,97150.34
2017-09-13T18:04:26.420Z,97149.30
2017-09-13T18:06:53.963Z,97133.77
2017-09-13T18:09:22.435Z,97138.12
2017-09-13T18:11:49.956Z,97134.31
2017-09-13T18:14:17.600Z,97128.84
2017-09-13T18:16:45.151Z,97116.68
2017-09-13T18:19:12.691Z,97126.92
2017-09-13T18:21:40.211Z,97125.20
2017-09-13T18:24:07.733Z,97129.41
2017-09-13T18:26:35.240Z,97129.89
2017-09-13T18:29:02.886Z,97131.30
2017-09-13T18:31:30.399Z,97125.20
2017-09-13T18:33:57.908Z,97130.67
2017-09-13T18:36:25.461Z,97128.11
2017-09-13T18:38:52.994Z,97127.45
2017-09-13T18:41:20.701Z,97131.45
2017-09-13T18:43:48.231Z,97129.48
2017-09-13T18:46:15.754Z,97127.73
2017-09-13T18:48:45.489Z,97124.19
2017-09-13T18:51:13.010Z,97120.09
2017-09-13T18:53:40.592Z,97124.67
2017-09-13T18:56:08.194Z,97131.94
2017-09-13T18:58:35.776Z,97132.84
2017-09-13T19:01:03.368Z,97136.97
2017-09-13T19:03:30.895Z,97142.77
2017-09-13T19:05:58.413Z,97145.25
2017-09-13T19:08:25.970Z,97151.65
2017-09-13T19:10:53.487Z,97160.64
2017-09-13T19:13:21.149Z,97157.55
2017-09-13T19:15:48.795Z,97155.29
2017-09-13T19:18:16.341Z,97144.31
2017-09-13T19:20:43.911Z,97141.81
2017-09-13T19:23:11.482Z,97130.95
2017-09-13T19:25:39.044Z,97130.44
2017-09-13T19:28:06.630Z,97133.96
2017-09-13T19:30:34.220Z,97130.80
2017-09-13T19:33:01.839Z,97141.92
2017-09-13T19:35:29.406Z,97150.45
2017-09-13T19:37:56.937Z,97149.33
2017-09-13T19:40:24.618Z,97146.09
2017-09-13T19:42:52.152Z,97139.57
2017-09-13T19:45:19.842Z,97138.35
2017-09-13T19:47:47.385Z,97144.22
2017-09-13T19:50:14.995Z,97133.59
2017-09-13T19:52:42.516Z,97143.37
2017-09-13T19:55:10.107Z,97137.70
2017-09-13T19:57:37.627Z,97127.13
2017-09-13T20:00:05.151Z,97136.65
2017-09-13T20:02:32.826Z,97139.81
2017-09-13T20:05:00.383Z,97137.54
2017-09-13T20:07:27.899Z,97127.84
2017-09-13T20:09:55.422Z,97111.97
2017-09-13T20:12:22.958Z,97126.47
2017-09-13T20:14:51.386Z,97124.92
2017-09-13T20:17:18.930Z,97118.82
2017-09-13T20:19:46.669Z,97114.92
2017-09-13T20:22:14.206Z,97114.58
2017-09-13T20:24:41.803Z,97111.43
2017-09-13T20:27:09.330Z,97114.36
2017-09-13T20:29:36.855Z,97119.27
2017-09-13T20:32:04.357Z,97112.36
2017-09-13T20:34:31.864Z,97110.47
2017-09-13T20:36:59.431Z,97121.31
2017-09-13T20:39:26.939Z,97102.42
2017-09-13T20:41:54.484Z,97095.38
2017-09-13T20:44:22.023Z,97102.19
2017-09-13T20:46:49.540Z,97094.80
2017-09-13T20:49:17.041Z,97084.22
2017-09-13T20:51:44.577Z,97072.84
2017-09-13T20:54:12.171Z,97077.31
2017-09-13T20:56:39.700Z,97074.91
2017-09-13T20:59:07.215Z,97076.53
2017-09-13T21:01:34.739Z,97070.86
2017-09-13T21:04:02.242Z,97070.63
2017-09-13T21:06:29.748Z,97068.95
2017-09-13T21:08:57.276Z,97061.20
2017-09-13T21:11:24.790Z,97052.17
2017-09-13T21:13:52.311Z,97051.13
2017-09-13T21:16:19.864Z,97053.29
2017-09-13T21:18:47.368Z,97060.45
2017-09-13T21:21:14.879Z,97059.25
2017-09-13T21:23:42.384Z,97055.93
2017-09-13T21:26:09.957Z,97056.06
2017-09-13T21:28:37.486Z,97049.81
2017-09-13T21:31:05.016Z,97051.23
2017-09-13T21:33:32.536Z,97051.83
2017-09-13T21:36:00.057Z,97053.06
2017-09-13T21:38:27.582Z,97041.52
2017-09-13T21:40:55.100Z,97025.23
2017-09-13T21:43:22.619Z,97014.94
2017-09-13T21:45:50.121Z,97026.91
2017-09-13T21:48:17.628Z,97022.23
2017-09-13T21:50:45.158Z,97015.44
2017-09-13T21:53:12.676Z,97011.44
2017-09-13T21:55:40.208Z,97020.43
2017-09-13T21:58:07.714Z,97017.33
2017-09-13T22:00:35.219Z,97021.16
2017-09-13T22:03:02.725Z,97022.67
2017-09-13T22:05:30.226Z,97018.89
2017-09-13T22:07:57.739Z,97014.79
2017-09-13T22:10:25.245Z,97018.27
2017-09-13T22:12:52.751Z,97004.21
2017-09-13T22:15:20.247Z,97000.84
2017-09-13T22:17:47.770Z,96998.40
2017-09-13T22:20:15.353Z,96994.37
2017-09-13T22:22:42.851Z,97001.81
2017-09-13T22:25:10.370Z,97000.56
2017-09-13T22:27:37.901Z,96993.33
2017-09-13T22:30:05.422Z,96992.30
2017-09-13T22:32:33.001Z,96972.17
2017-09-13T22:35:00.512Z,96979.20
2017-09-13T22:37:28.011Z,96988.01
2017-09-13T22:39:55.537Z,96973.59
2017-09-13T22:42:23.040Z,96977.30
2017-09-13T22:44:50.546Z,96963.01
2017-09-13T22:47:18.055Z,96968.58
2017-09-13T22:49:45.589Z,96979.98
2017-09-13T22:52:13.095Z,96984.14
2017-09-13T22:54:40.610Z,96997.00
2017-09-13T22:57:08.122Z,96969.78
2017-09-13T22:59:35.652Z,96989.61
2017-09-13T23:02:03.155Z,96994.12
2017-09-13T23:04:30.675Z,96976.86
2017-09-13T23:06:58.200Z,96993.74
2017-09-13T23:09:31.493Z,96990.59
2017-09-13T23:11:58.989Z,96990.39
2017-09-13T23:14:26.515Z,96996.66
2017-09-13T23:16:54.047Z,96988.05
2017-09-13T23:19:21.574Z,97005.14
2017-09-13T23:21:49.086Z,96990.19
2017-09-13T23:24:16.596Z,96988.25
2017-09-13T23:26:44.098Z,96995.11
2017-09-13T23:29:11.608Z,96990.02
2017-09-13T23:31:39.110Z,96980.39
2017-09-13T23:34:06.616Z,96971.34
2017-09-13T23:36:34.128Z,96972.54
2017-09-13T23:39:01.640Z,96966.45
2017-09-13T23:41:29.143Z,96962.13
2017-09-13T23:43:56.647Z,96964.88
2017-09-13T23:46:24.143Z,96947.98
2017-09-13T23:48:51.655Z,96951.34
2017-09-13T23:51:19.168Z,96934.83
2017-09-13T23:53:46.694Z,96945.83
2017-09-13T23:56:14.196Z,96944.66
2017-09-13T23:58:41.711Z,96940.50
